Wayne, NE

12:08 PM CST on December 09, 2016 (GMT -0600)
Wayne Municipal

Weather History for KLCG - December, 2012

Change the Weather History Date:

Wednesday, December 12, 2012

  Actual Average (KOFK) Record (KOFK)
Temperature  
Mean Temperature 42 °F -  
Max Temperature 54 °F 37 °F 65 °F (1921)
Min Temperature 30 °F 14 °F -25 °F (1932)
Degree Days  
Heating Degree Days 23    
Moisture  
Dew Point 13 °F    
Average Humidity 36    
Maximum Humidity 51    
Minimum Humidity 18    
Precipitation  
Precipitation 0.00 in - - ()
Sea Level Pressure  
Sea Level Pressure 29.86 in    
Wind  
Wind Speed 16 mph (SSW)    
Max Wind Speed 29 mph    
Max Gust Speed 36 mph    
Visibility 10 miles    
Events      
Averages and records for this station are not official NWS values.
T = Trace of Precipitation, MM = Missing Value Source: NWS Daily Summary

Daily Weather History Graph

Daily Weather History Graph

Search for Another Location

Airport or City:

Trip Planner

Search our weather history database for the weather conditions in past years. The results will help you decide how hot, cold, wet, or windy it might be!

Date:

Astronomy

Dec. 12, 2012 Rise Set
Actual Time 7:47 AM CST 4:55 PM CST
Civil Twilight 7:16 AM CST 5:27 PM CST
Nautical Twilight 6:40 AM CST 6:03 PM CST
Astronomical Twilight 6:06 AM CST 6:37 PM CST
Moon 6:53 AM CST (12/12) 4:34 PM CST (12/12)
Length of Visible Light 10h 11m
Length of Day
9h 08m
Waning Crescent, 1% of the Moon is Illuminated
Dec 12
Waning Crescent
Dec 13
New
Dec 19
First Quarter
Dec 28
Full
Jan 4
Last Quarter

Hourly Weather History & Observations

Time (CST) Temp. Windchill Dew Point Humidity Pressure Visibility Wind Dir Wind Speed Gust Speed Precip Events Conditions
12:15 AM 31.8 °F 21.4 °F 13.3 °F 46% 29.90 in 10.0 mi SSW 15.0 mph - N/A   Clear
12:35 AM 33.1 °F 22.2 °F 12.7 °F 43% 29.89 in 10.0 mi SSW 17.3 mph - N/A   Clear
12:55 AM 32.5 °F 22.7 °F 12.7 °F 44% 29.88 in 10.0 mi SSW 13.8 mph 19.6 mph N/A   Clear
1:15 AM 32.9 °F 23.2 °F 12.7 °F 43% 29.88 in 10.0 mi SW 13.8 mph 18.4 mph N/A   Clear
1:35 AM 33.3 °F 24.1 °F 13.1 °F 43% 29.87 in 10.0 mi SSW 12.7 mph - N/A   Clear
1:55 AM 32.9 °F 23.7 °F 13.5 °F 45% 29.88 in 10.0 mi SSW 12.7 mph - N/A   Clear
2:15 AM 32.7 °F 23.9 °F 13.6 °F 45% 29.88 in 10.0 mi SSW 11.5 mph - N/A   Clear
2:35 AM 32.2 °F 22.3 °F 14.0 °F 47% 29.88 in 10.0 mi SSW 13.8 mph - N/A   Clear
2:55 AM 32.7 °F 23.0 °F 14.0 °F 46% 29.87 in 10.0 mi SSW 13.8 mph 19.6 mph N/A   Clear
3:15 AM 32.0 °F 23.0 °F 14.4 °F 48% 29.88 in 10.0 mi SSW 11.5 mph - N/A   Clear
3:35 AM 32.4 °F 22.5 °F 14.5 °F 48% 29.86 in 10.0 mi SSW 13.8 mph - N/A   Clear
3:55 AM 32.9 °F 22.8 °F 14.7 °F 47% 29.86 in 10.0 mi SSW 15.0 mph 20.7 mph N/A   Clear
4:15 AM 32.7 °F 22.5 °F 14.9 °F 48% 29.85 in 10.0 mi SSW 15.0 mph - N/A   Clear
4:35 AM 32.9 °F 23.2 °F 14.9 °F 48% 29.85 in 10.0 mi SSW 13.8 mph - N/A   Clear
4:55 AM 32.9 °F 22.4 °F 14.9 °F 48% 29.84 in 10.0 mi SSW 16.1 mph - N/A   Clear
5:15 AM 32.9 °F 23.2 °F 14.9 °F 48% 29.85 in 10.0 mi SSW 13.8 mph 18.4 mph N/A   Clear
5:35 AM 32.4 °F 22.1 °F 14.7 °F 48% 29.85 in 10.0 mi SSW 15.0 mph - N/A   Clear
5:55 AM 32.0 °F 22.1 °F 14.5 °F 49% 29.85 in 10.0 mi SSW 13.8 mph - N/A   Clear
6:15 AM 31.8 °F 22.8 °F 14.4 °F 49% 29.85 in 10.0 mi South 11.5 mph - N/A   Clear
6:35 AM 32.0 °F 22.1 °F 14.2 °F 48% 29.85 in 10.0 mi SSW 13.8 mph - N/A   Clear
6:55 AM 31.8 °F 21.8 °F 14.0 °F 48% 29.86 in 10.0 mi SSW 13.8 mph - N/A   Clear
7:15 AM 31.1 °F 21.9 °F 14.0 °F 49% 29.86 in 10.0 mi South 11.5 mph - N/A   Clear
7:35 AM 30.2 °F 20.2 °F 14.0 °F 51% 29.87 in 10.0 mi South 12.7 mph - N/A   Clear
7:55 AM 30.2 °F 20.8 °F 13.8 °F 51% 29.86 in 10.0 mi SSW 11.5 mph - N/A   Clear
8:15 AM 31.1 °F 20.9 °F 13.6 °F 48% 29.86 in 10.0 mi SSW 13.8 mph - N/A   Clear
8:35 AM 32.0 °F 23.0 °F 13.8 °F 47% 29.86 in 10.0 mi SSW 11.5 mph 18.4 mph N/A   Clear
8:55 AM 33.8 °F 22.8 °F 13.8 °F 44% 29.86 in 10.0 mi SSW 18.4 mph 23.0 mph N/A   Clear
9:15 AM 35.2 °F 24.7 °F 13.6 °F 41% 29.87 in 10.0 mi SSW 18.4 mph 25.3 mph N/A   Clear
9:35 AM 36.5 °F 25.4 °F 13.5 °F 39% 29.87 in 10.0 mi SSW 21.9 mph - N/A   Clear
9:55 AM 37.4 °F 26.9 °F 13.1 °F 37% 29.87 in 10.0 mi SSW 20.7 mph 28.8 mph N/A   Clear
10:15 AM 38.8 °F 28.8 °F 12.7 °F 34% 29.88 in 10.0 mi SSW 20.7 mph 27.6 mph N/A   Clear
10:35 AM 39.6 °F 29.5 °F 12.2 °F 33% 29.88 in 10.0 mi SSW 21.9 mph 27.6 mph N/A   Clear
10:55 AM 41.0 °F 31.6 °F 12.6 °F 31% 29.88 in 10.0 mi SSW 20.7 mph 28.8 mph N/A   Clear
11:15 AM 42.3 °F 32.8 °F 12.7 °F 30% 29.87 in 10.0 mi SSW 23.0 mph 28.8 mph N/A   Clear
11:35 AM 43.7 °F 34.5 °F 12.2 °F 28% 29.86 in 10.0 mi SSW 24.2 mph 28.8 mph N/A   Clear
11:55 AM 45.1 °F 36.9 °F 12.4 °F 27% 29.86 in 10.0 mi SSW 21.9 mph 26.5 mph N/A   Clear
12:15 PM 46.8 °F - 12.4 °F 25% 29.86 in 10.0 mi SSW 19.6 mph 25.3 mph N/A   Clear
12:35 PM 47.5 °F - 12.2 °F 24% 29.85 in 10.0 mi SSW 23.0 mph 27.6 mph N/A   Clear
12:55 PM 48.6 °F - 12.6 °F 24% 29.84 in 10.0 mi SSW 19.6 mph 27.6 mph N/A   Clear
1:15 PM 50.0 °F - 12.6 °F 22% 29.83 in 10.0 mi SSW 21.9 mph 27.6 mph N/A   Clear
1:55 PM 52.7 °F - 12.2 °F 20% 29.81 in 10.0 mi SSW 24.2 mph 29.9 mph N/A   Clear
2:15 PM 52.9 °F - 12.0 °F 20% 29.81 in 10.0 mi SSW 24.2 mph 29.9 mph N/A   Clear
2:35 PM 53.1 °F - 11.5 °F 19% 29.81 in 10.0 mi SSW 25.3 mph 32.2 mph N/A   Clear
2:55 PM 54.0 °F - 11.3 °F 18% 29.81 in 10.0 mi SSW 24.2 mph 32.2 mph N/A   Clear
3:15 PM 53.1 °F - 11.5 °F 19% 29.81 in 10.0 mi SSW 28.8 mph 35.7 mph N/A   Clear
3:35 PM 52.0 °F - 11.3 °F 20% 29.81 in 10.0 mi SSW 26.5 mph 32.2 mph N/A   Clear
3:55 PM 51.8 °F - 11.3 °F 20% 29.81 in 10.0 mi SSW 24.2 mph 28.8 mph N/A   Clear
4:15 PM 51.3 °F - 12.0 °F 21% 29.82 in 10.0 mi SSW 20.7 mph 31.1 mph N/A   Clear
4:35 PM 49.5 °F - 12.7 °F 23% 29.82 in 10.0 mi SSW 19.6 mph 23.0 mph N/A   Clear
4:55 PM 47.5 °F - 13.1 °F 25% 29.82 in 10.0 mi SSW 18.4 mph 25.3 mph N/A   Clear
5:15 PM 47.3 °F - 13.1 °F 25% 29.83 in 10.0 mi SSW 18.4 mph - N/A   Clear
5:35 PM 46.9 °F - 13.1 °F 26% 29.83 in 10.0 mi SSW 18.4 mph 25.3 mph N/A   Clear
5:55 PM 46.2 °F 39.5 °F 13.1 °F 26% 29.84 in 10.0 mi SSW 16.1 mph - N/A   Clear
6:15 PM 44.6 °F 37.8 °F 13.1 °F 28% 29.85 in 10.0 mi SSW 15.0 mph - N/A   Clear
6:55 PM 41.9 °F 35.0 °F 13.1 °F 31% 29.85 in 10.0 mi South 12.7 mph - N/A   Clear
7:15 PM 40.6 °F 33.0 °F 13.1 °F 33% 29.85 in 10.0 mi South 13.8 mph - N/A   Clear
7:35 PM 42.6 °F 34.9 °F 13.6 °F 31% 29.86 in 10.0 mi South 16.1 mph - N/A   Clear
7:55 PM 42.6 °F 34.9 °F 13.6 °F 31% 29.86 in 10.0 mi South 16.1 mph - N/A   Clear
8:15 PM 41.5 °F 33.8 °F 13.6 °F 32% 29.88 in 10.0 mi South 15.0 mph - N/A   Clear
8:35 PM 41.0 °F 33.5 °F 13.6 °F 33% 29.87 in 10.0 mi South 13.8 mph - N/A   Clear
8:55 PM 39.9 °F 33.9 °F 13.6 °F 34% 29.87 in 10.0 mi South 9.2 mph - N/A   Clear
9:15 PM 39.6 °F 32.5 °F 14.0 °F 35% 29.88 in 10.0 mi South 11.5 mph - N/A   Clear
9:35 PM 39.2 °F 31.6 °F 14.0 °F 36% 29.88 in 10.0 mi South 12.7 mph - N/A   Clear
9:55 PM 39.2 °F 31.6 °F 14.0 °F 36% 29.88 in 10.0 mi South 12.7 mph - N/A   Clear
10:15 PM 38.5 °F 32.1 °F 14.0 °F 37% 29.88 in 10.0 mi South 9.2 mph - N/A   Clear